Terminal Aerodrome Forecast
Issued by NWS

Home | Current Version | Previous Version | Text Only | Print | Product List | Glossary On
Versions: 1 2 3 4 5 6 7 8 9 10 11 12
846
FTUS41 KPBZ 231723
TAFBVI
TAF
KBVI 231723Z 2318/2418 12008G16KT P6SM SCT250
     FM240000 14008KT P6SM BKN100
     FM241000 10008KT P6SM -SHRA OVC060
     FM241400 11008KT P6SM -SHRA OVC030=

USA.gov is the U.S. government's official web portal to all federal, state and local government web resources and services.